createdAt,value
2023-04-05T00:02:18.737Z,9.77
2023-04-05T00:04:57.875Z,9.10
2023-04-05T00:07:29.344Z,8.93
2023-04-05T00:10:03.514Z,8.10
2023-04-05T00:12:34.650Z,8.80
2023-04-05T00:15:12.199Z,13.67
2023-04-05T00:17:43.837Z,8.07
2023-04-05T00:20:16.195Z,9.50
2023-04-05T00:22:50.816Z,9.37
2023-04-05T00:25:22.109Z,8.65
2023-04-05T00:27:53.075Z,8.25
2023-04-05T00:30:29.246Z,7.57
2023-04-05T00:33:00.466Z,7.28
2023-04-05T00:35:31.684Z,9.93
2023-04-05T00:38:04.700Z,13.00
2023-04-05T00:40:35.821Z,14.77
2023-04-05T00:43:07.000Z,9.77
2023-04-05T00:45:40.667Z,10.48
2023-04-05T00:48:12.116Z,13.75
2023-04-05T00:50:43.504Z,10.35
2023-04-05T00:53:14.949Z,11.48
2023-04-05T00:55:48.587Z,10.48
2023-04-05T00:58:21.704Z,8.40
2023-04-05T01:01:05.561Z,10.10
2023-04-05T01:03:41.875Z,11.38
2023-04-05T01:06:25.561Z,9.88
2023-04-05T01:09:08.889Z,9.82
2023-04-05T01:11:43.033Z,9.32
2023-04-05T01:14:17.066Z,10.77
2023-04-05T01:16:51.546Z,8.55
2023-04-05T01:19:22.940Z,8.15
2023-04-05T01:22:32.149Z,9.20
2023-04-05T01:25:38.722Z,10.63
2023-04-05T01:28:37.060Z,8.00
2023-04-05T01:31:14.101Z,9.15
2023-04-05T01:33:52.386Z,8.25
2023-04-05T01:36:34.118Z,8.57
2023-04-05T01:39:10.804Z,8.90
2023-04-05T01:41:47.226Z,12.95
2023-04-05T01:44:21.370Z,10.25
2023-04-05T01:47:20.452Z,11.25
2023-04-05T01:49:51.676Z,9.43
2023-04-05T01:52:22.861Z,12.95
2023-04-05T01:54:53.786Z,10.65
2023-04-05T01:57:24.713Z,9.80
2023-04-05T01:59:55.680Z,9.65
2023-04-05T02:02:32.829Z,11.10
2023-04-05T02:05:03.823Z,9.80
2023-04-05T02:07:34.763Z,9.50
2023-04-05T02:10:06.032Z,11.52
2023-04-05T02:12:37.289Z,8.75
2023-04-05T02:15:09.639Z,11.38
2023-04-05T02:17:45.915Z,10.32
2023-04-05T02:20:18.643Z,10.57
2023-04-05T02:22:49.746Z,14.80
2023-04-05T02:25:20.804Z,10.60
2023-04-05T02:27:51.946Z,8.65
2023-04-05T02:30:29.086Z,10.70
2023-04-05T02:33:03.207Z,11.80
2023-04-05T02:35:34.371Z,15.00
2023-04-05T02:38:05.591Z,12.13
2023-04-05T02:40:40.235Z,11.13
2023-04-05T02:43:11.606Z,12.10
2023-04-05T02:45:43.174Z,10.75
2023-04-05T02:48:17.946Z,13.25
2023-04-05T02:50:50.982Z,14.27
2023-04-05T02:53:22.563Z,9.68
2023-04-05T02:55:57.040Z,12.77
2023-04-05T02:58:31.520Z,9.60
2023-04-05T03:01:07.431Z,12.93
2023-04-05T03:03:41.691Z,11.23
2023-04-05T03:06:13.519Z,11.13
2023-04-05T03:08:48.742Z,13.40
2023-04-05T03:11:19.803Z,11.75
2023-04-05T03:13:50.743Z,13.32
2023-04-05T03:16:22.754Z,9.57
2023-04-05T03:18:57.431Z,10.02
2023-04-05T03:21:30.951Z,10.20
2023-04-05T03:24:02.326Z,12.13
2023-04-05T03:26:35.768Z,12.50
2023-04-05T03:29:06.998Z,10.55
2023-04-05T03:31:38.102Z,11.32
2023-04-05T03:34:11.999Z,12.32
2023-04-05T03:36:46.167Z,10.98
2023-04-05T03:39:17.184Z,11.05
2023-04-05T03:41:48.331Z,12.63
2023-04-05T03:44:19.460Z,10.18
2023-04-05T03:46:50.509Z,10.88
2023-04-05T03:49:24.396Z,14.40
2023-04-05T03:51:56.584Z,11.95
2023-04-05T03:54:27.638Z,11.40
2023-04-05T03:56:58.759Z,15.85
2023-04-05T03:59:32.989Z,12.68
2023-04-05T04:02:04.078Z,11.57
2023-04-05T04:04:39.598Z,11.85
2023-04-05T04:07:10.732Z,11.00
2023-04-05T04:09:41.683Z,13.68
2023-04-05T04:12:15.171Z,11.65
2023-04-05T04:14:46.101Z,14.23
2023-04-05T04:17:29.671Z,12.27
2023-04-05T04:20:07.855Z,12.95
2023-04-05T04:22:40.674Z,12.30
2023-04-05T04:25:14.794Z,12.80
2023-04-05T04:27:46.812Z,12.80
2023-04-05T04:30:21.080Z,13.63
2023-04-05T04:32:55.763Z,14.07
2023-04-05T04:35:31.033Z,9.82
2023-04-05T04:38:06.044Z,12.30
2023-04-05T04:40:39.237Z,15.23
2023-04-05T04:43:14.738Z,10.25
2023-04-05T04:45:47.423Z,15.38
2023-04-05T04:48:19.108Z,21.55
2023-04-05T04:50:52.930Z,13.50
2023-04-05T04:53:24.493Z,10.75
2023-04-05T04:55:56.701Z,14.18
2023-04-05T04:58:27.633Z,12.13
2023-04-05T05:00:59.505Z,13.70
2023-04-05T05:03:30.635Z,12.65
2023-04-05T05:06:05.012Z,11.65
2023-04-05T05:08:37.453Z,12.95
2023-04-05T05:11:10.721Z,15.40
2023-04-05T05:13:41.988Z,15.15
2023-04-05T05:16:13.279Z,13.48
2023-04-05T05:18:48.255Z,13.13
2023-04-05T05:21:25.092Z,13.85
2023-04-05T05:23:56.251Z,14.77
2023-04-05T05:26:27.366Z,15.82
2023-04-05T05:28:58.462Z,15.60
2023-04-05T05:31:29.566Z,12.05
2023-04-05T05:34:00.548Z,13.35
2023-04-05T05:36:34.090Z,17.75
2023-04-05T05:39:06.032Z,13.93
2023-04-05T05:41:36.975Z,13.15
2023-04-05T05:44:10.091Z,14.45
2023-04-05T05:46:41.362Z,13.75
2023-04-05T05:49:12.525Z,16.55
2023-04-05T05:51:46.593Z,17.00
2023-04-05T05:54:17.550Z,12.52
2023-04-05T05:56:48.441Z,12.32
2023-04-05T05:59:19.562Z,15.77
2023-04-05T06:01:51.429Z,13.63
2023-04-05T06:04:22.848Z,16.58
2023-04-05T06:06:58.947Z,16.30
2023-04-05T06:09:34.104Z,12.43
2023-04-05T06:12:10.994Z,16.58
2023-04-05T06:14:42.314Z,14.15
2023-04-05T06:17:13.402Z,12.90
2023-04-05T06:19:44.385Z,11.57
2023-04-05T06:22:18.417Z,9.80
2023-04-05T06:24:52.622Z,10.47
2023-04-05T06:27:23.663Z,10.43
2023-04-05T06:30:02.942Z,9.47
2023-04-05T06:32:37.292Z,9.80
2023-04-05T06:35:09.737Z,11.50
2023-04-05T06:37:43.296Z,8.30
2023-04-05T06:40:14.696Z,10.80
2023-04-05T06:42:46.226Z,10.60
2023-04-05T06:45:19.981Z,9.30
2023-04-05T06:47:56.041Z,7.97
2023-04-05T06:50:30.333Z,7.37
2023-04-05T06:53:03.924Z,7.10
2023-04-05T06:55:34.864Z,6.80
2023-04-05T06:58:39.078Z,8.03
2023-04-05T07:01:11.569Z,7.30
2023-04-05T07:03:42.462Z,7.20
2023-04-05T07:06:13.413Z,10.53
2023-04-05T07:08:47.240Z,8.83
2023-04-05T07:11:18.163Z,6.77
2023-04-05T07:13:49.139Z,7.20
2023-04-05T07:16:23.728Z,8.90
2023-04-05T07:18:55.106Z,7.63
2023-04-05T07:21:27.268Z,8.77
2023-04-05T07:24:02.114Z,6.60
2023-04-05T07:26:54.848Z,7.17
2023-04-05T07:29:26.582Z,8.23
2023-04-05T07:31:57.542Z,7.13
2023-04-05T07:34:46.798Z,7.90
2023-04-05T07:37:18.236Z,9.73
2023-04-05T07:39:54.316Z,9.30
2023-04-05T07:42:25.849Z,9.93
2023-04-05T07:44:56.886Z,8.70
2023-04-05T07:47:36.782Z,7.80
2023-04-05T07:50:15.348Z,5.97
2023-04-05T07:52:46.735Z,6.07
2023-04-05T07:55:20.714Z,7.50
2023-04-05T07:57:51.792Z,7.40
2023-04-05T08:00:23.615Z,7.40
2023-04-05T08:03:01.292Z,8.20
2023-04-05T08:05:33.056Z,6.70
2023-04-05T08:08:08.876Z,5.87
2023-04-05T08:10:44.297Z,6.87
2023-04-05T08:13:15.642Z,6.13
2023-04-05T08:15:49.105Z,5.70
2023-04-05T08:18:20.038Z,5.53
2023-04-05T08:20:54.516Z,5.77
2023-04-05T08:23:25.662Z,6.17
2023-04-05T08:26:02.528Z,5.00
2023-04-05T08:28:36.662Z,6.70
2023-04-05T08:31:07.626Z,7.80
2023-04-05T08:33:39.776Z,7.50
2023-04-05T08:36:14.492Z,5.47
2023-04-05T08:38:48.071Z,6.07
2023-04-05T08:41:26.382Z,5.60
2023-04-05T08:44:00.753Z,4.30
2023-04-05T08:46:34.184Z,7.17
2023-04-05T08:49:09.015Z,7.43
2023-04-05T08:51:41.238Z,4.60
2023-04-05T08:54:13.017Z,7.00
2023-04-05T08:56:51.766Z,6.57
2023-04-05T08:59:23.834Z,7.03
2023-04-05T09:01:55.374Z,8.97
2023-04-05T09:04:29.222Z,9.17
2023-04-05T09:07:02.147Z,6.27
2023-04-05T09:09:36.333Z,5.67
2023-04-05T09:12:11.303Z,9.27
2023-04-05T09:14:43.100Z,5.77
2023-04-05T09:17:14.343Z,7.50
2023-04-05T09:19:45.283Z,6.10
2023-04-05T09:22:19.624Z,8.40
2023-04-05T09:24:50.676Z,9.80
2023-04-05T09:27:24.289Z,9.80
2023-04-05T09:29:58.240Z,8.83
2023-04-05T09:32:30.559Z,6.93
2023-04-05T09:35:04.815Z,7.07
2023-04-05T09:37:35.974Z,7.33
2023-04-05T09:40:10.133Z,9.77
2023-04-05T09:42:53.296Z,6.80
2023-04-05T09:45:24.363Z,6.70
2023-04-05T09:48:00.732Z,7.00
2023-04-05T09:50:32.006Z,6.50
2023-04-05T09:53:15.741Z,9.80
2023-04-05T09:55:46.926Z,7.93
2023-04-05T09:58:25.094Z,8.30
2023-04-05T10:01:13.330Z,10.73
2023-04-05T10:03:50.385Z,6.93
2023-04-05T10:06:22.084Z,6.70
2023-04-05T10:08:54.465Z,8.20
2023-04-05T10:11:29.066Z,7.50
2023-04-05T10:14:05.253Z,7.03
2023-04-05T10:16:41.179Z,7.40
2023-04-05T10:19:30.053Z,11.63
2023-04-05T10:22:07.882Z,8.03
2023-04-05T10:24:58.074Z,8.63
2023-04-05T10:27:34.351Z,8.30
2023-04-05T10:30:12.521Z,7.77
2023-04-05T10:33:09.558Z,7.53
2023-04-05T10:35:53.587Z,6.47
2023-04-05T10:38:30.916Z,6.23
2023-04-05T10:41:14.703Z,6.23
2023-04-05T10:43:47.051Z,6.43
2023-04-05T10:46:25.391Z,6.77
2023-04-05T10:49:02.343Z,9.33
2023-04-05T10:51:34.697Z,6.83
2023-04-05T10:54:06.226Z,7.23
2023-04-05T10:56:41.539Z,6.83
2023-04-05T10:59:14.264Z,7.03
2023-04-05T11:01:49.460Z,7.47
2023-04-05T11:04:21.009Z,6.13
2023-04-05T11:07:15.723Z,7.27
2023-04-05T11:09:58.735Z,6.93
2023-04-05T11:13:02.538Z,7.00
2023-04-05T11:15:35.141Z,8.90
2023-04-05T11:18:25.209Z,6.17
2023-04-05T11:21:11.029Z,7.23
2023-04-05T11:24:07.526Z,6.53
2023-04-05T11:26:56.819Z,9.43
2023-04-05T11:29:55.152Z,7.63
2023-04-05T11:32:26.833Z,6.33
2023-04-05T11:35:15.100Z,6.73
2023-04-05T11:38:11.148Z,6.10
2023-04-05T11:40:45.768Z,7.27
2023-04-05T11:43:16.698Z,8.53
2023-04-05T11:45:48.067Z,11.20
2023-04-05T11:48:18.961Z,11.97
2023-04-05T11:50:54.454Z,6.70
2023-04-05T11:53:25.552Z,6.27
2023-04-05T11:55:58.592Z,5.53
2023-04-05T11:58:31.612Z,5.60
2023-04-05T12:01:05.473Z,6.57
2023-04-05T12:03:38.159Z,6.70
2023-04-05T12:06:12.227Z,6.63
2023-04-05T12:08:50.231Z,7.93
2023-04-05T12:11:28.108Z,9.13
2023-04-05T12:14:00.175Z,5.97
2023-04-05T12:16:31.908Z,6.73
2023-04-05T12:19:03.949Z,6.03
2023-04-05T12:21:37.784Z,5.47
2023-04-05T12:24:09.644Z,5.00
2023-04-05T12:26:40.703Z,5.73
2023-04-05T12:29:11.635Z,5.73
2023-04-05T12:31:43.179Z,7.10
2023-04-05T12:34:18.294Z,5.77
2023-04-05T12:36:52.466Z,5.17
2023-04-05T12:39:24.868Z,5.73
2023-04-05T12:42:05.622Z,6.13
2023-04-05T12:44:36.820Z,7.83
2023-04-05T12:47:15.721Z,6.23
2023-04-05T12:49:46.871Z,5.47
2023-04-05T12:52:25.229Z,5.17
2023-04-05T12:55:01.916Z,5.17
2023-04-05T12:57:34.361Z,6.00
2023-04-05T13:00:11.121Z,5.37
2023-04-05T13:02:43.287Z,5.13
2023-04-05T13:05:44.577Z,6.30
2023-04-05T13:08:18.529Z,5.60
2023-04-05T13:10:51.368Z,5.30
2023-04-05T13:13:23.428Z,7.50
2023-04-05T13:16:06.040Z,6.10
2023-04-05T13:18:40.856Z,5.23
2023-04-05T13:21:11.860Z,5.60
2023-04-05T13:23:48.450Z,5.10
2023-04-05T13:26:22.230Z,5.10
2023-04-05T13:28:53.240Z,5.70
2023-04-05T13:31:24.469Z,5.20
2023-04-05T13:34:01.709Z,5.03
2023-04-05T13:36:33.585Z,4.73
2023-04-05T13:39:07.261Z,5.53
2023-04-05T13:41:40.941Z,4.97
2023-04-05T13:44:11.979Z,4.80
2023-04-05T13:46:43.036Z,4.70
2023-04-05T13:49:14.138Z,5.70
2023-04-05T13:51:47.781Z,4.77
2023-04-05T13:54:21.571Z,6.50
2023-04-05T13:56:52.609Z,5.10
2023-04-05T13:59:23.701Z,5.67
2023-04-05T14:01:55.562Z,5.20
2023-04-05T14:04:29.492Z,6.17
2023-04-05T14:07:15.952Z,5.17
2023-04-05T14:09:59.354Z,5.67
2023-04-05T14:12:31.820Z,6.57
2023-04-05T14:15:02.769Z,6.40
2023-04-05T14:17:33.784Z,5.07
2023-04-05T14:20:04.906Z,5.90
2023-04-05T14:22:35.835Z,5.20
2023-04-05T14:25:10.677Z,6.47
2023-04-05T14:27:42.676Z,5.10
2023-04-05T14:30:14.867Z,7.93
2023-04-05T14:32:48.113Z,6.23
2023-04-05T14:35:19.589Z,4.80
2023-04-05T14:37:50.482Z,6.53
2023-04-05T14:40:24.199Z,5.37
2023-04-05T14:42:55.688Z,6.50
2023-04-05T14:45:29.943Z,5.07
2023-04-05T14:48:01.080Z,5.97
2023-04-05T14:50:36.681Z,5.13
2023-04-05T14:53:07.554Z,6.83
2023-04-05T14:55:41.120Z,5.10
2023-04-05T14:58:14.333Z,6.33
2023-04-05T15:00:48.619Z,4.87
2023-04-05T15:03:20.739Z,5.60
2023-04-05T15:05:51.946Z,6.13
2023-04-05T15:08:22.926Z,9.13
2023-04-05T15:10:56.581Z,5.63
2023-04-05T15:13:28.285Z,8.33
2023-04-05T15:16:03.877Z,5.00
2023-04-05T15:18:34.806Z,5.53
2023-04-05T15:21:07.067Z,5.03
2023-04-05T15:23:38.150Z,5.17
2023-04-05T15:26:12.726Z,5.60
2023-04-05T15:28:43.696Z,7.03
2023-04-05T15:31:14.648Z,4.40
2023-04-05T15:33:45.626Z,5.30
2023-04-05T15:36:17.971Z,5.33
2023-04-05T15:38:51.482Z,5.33
2023-04-05T15:41:27.411Z,6.07
2023-04-05T15:43:58.702Z,5.80
2023-04-05T15:46:29.803Z,5.77
2023-04-05T15:49:01.191Z,5.90
2023-04-05T15:51:32.710Z,5.50
2023-04-05T15:54:04.040Z,5.33
2023-04-05T15:56:42.467Z,7.07
2023-04-05T15:59:14.504Z,4.90
2023-04-05T16:01:46.072Z,5.40
2023-04-05T16:04:20.081Z,5.50
2023-04-05T16:06:51.020Z,4.50
2023-04-05T16:09:24.805Z,5.00
2023-04-05T16:11:59.445Z,4.90
2023-04-05T16:14:30.690Z,5.10
2023-04-05T16:17:04.527Z,5.37
2023-04-05T16:19:35.530Z,6.23
2023-04-05T16:22:09.746Z,6.53
2023-04-05T16:24:40.874Z,5.70
2023-04-05T16:27:17.179Z,5.67
2023-04-05T16:29:50.849Z,4.93
2023-04-05T16:32:21.956Z,5.47
2023-04-05T16:34:55.867Z,5.10
2023-04-05T16:37:26.940Z,8.30
2023-04-05T16:39:57.893Z,5.53
2023-04-05T16:42:31.616Z,6.13
2023-04-05T16:45:02.504Z,6.43
2023-04-05T16:47:36.916Z,5.60
2023-04-05T16:50:11.565Z,6.60
2023-04-05T16:52:42.672Z,4.87
2023-04-05T16:55:14.075Z,5.83
2023-04-05T16:57:47.756Z,5.50
2023-04-05T17:00:22.185Z,5.50
2023-04-05T17:02:53.331Z,4.93
2023-04-05T17:05:24.447Z,6.67
2023-04-05T17:07:55.868Z,5.27
2023-04-05T17:10:27.278Z,8.40
2023-04-05T17:13:00.966Z,5.67
2023-04-05T17:15:34.490Z,6.20
2023-04-05T17:18:13.087Z,5.23
2023-04-05T17:20:44.083Z,6.73
2023-04-05T17:23:15.024Z,5.90
2023-04-05T17:25:45.884Z,5.13
2023-04-05T17:28:19.552Z,5.20
2023-04-05T17:30:50.663Z,7.03
2023-04-05T17:33:21.602Z,5.07
2023-04-05T17:35:53.235Z,4.70
2023-04-05T17:38:24.358Z,5.33
2023-04-05T17:40:57.585Z,5.00
2023-04-05T17:43:31.782Z,5.30
2023-04-05T17:46:03.100Z,5.33
2023-04-05T17:48:34.209Z,6.20
2023-04-05T17:51:09.248Z,4.90
2023-04-05T17:53:42.304Z,4.53
2023-04-05T17:56:13.210Z,4.67
2023-04-05T17:58:46.765Z,5.80
2023-04-05T18:01:17.698Z,4.80
2023-04-05T18:03:48.831Z,5.17
2023-04-05T18:06:20.239Z,7.20
2023-04-05T18:08:51.542Z,5.30
2023-04-05T18:11:22.524Z,5.87
2023-04-05T18:13:58.072Z,6.20
2023-04-05T18:16:29.508Z,7.60
2023-04-05T18:19:00.442Z,6.67
2023-04-05T18:21:31.820Z,6.50
2023-04-05T18:24:02.778Z,6.90
2023-04-05T18:26:33.727Z,5.60
2023-04-05T18:29:07.458Z,5.90
2023-04-05T18:31:38.400Z,8.37
2023-04-05T18:34:09.429Z,5.80
2023-04-05T18:36:40.763Z,6.20
2023-04-05T18:39:12.079Z,9.33
2023-04-05T18:41:42.952Z,5.97
2023-04-05T18:44:16.530Z,7.90
2023-04-05T18:46:49.009Z,8.70
2023-04-05T18:49:19.914Z,7.13
2023-04-05T18:51:51.111Z,9.03
2023-04-05T18:54:22.019Z,10.70
2023-04-05T18:56:53.100Z,8.33
2023-04-05T18:59:26.657Z,8.13
2023-04-05T19:01:57.607Z,9.30
2023-04-05T19:04:31.009Z,10.17
2023-04-05T19:07:02.557Z,9.50
2023-04-05T19:09:33.497Z,9.73
2023-04-05T19:12:04.375Z,12.40
2023-04-05T19:14:37.998Z,11.17
2023-04-05T19:17:09.349Z,9.53
2023-04-05T19:19:40.325Z,11.70
2023-04-05T19:22:11.389Z,9.60
2023-04-05T19:24:43.110Z,8.70
2023-04-05T19:27:13.977Z,8.93
2023-04-05T19:29:47.455Z,8.53
2023-04-05T19:32:19.853Z,10.20
2023-04-05T19:34:51.108Z,11.13
2023-04-05T19:37:22.372Z,8.97
2023-04-05T19:39:54.495Z,8.53
2023-04-05T19:42:25.499Z,9.80
2023-04-05T19:45:01.292Z,8.30
2023-04-05T19:47:33.640Z,10.60
2023-04-05T19:50:08.973Z,9.13
2023-04-05T19:52:46.431Z,7.00
2023-04-05T19:55:34.106Z,8.13
2023-04-05T19:58:08.466Z,11.27
2023-04-05T20:00:47.203Z,9.73
2023-04-05T20:03:31.489Z,11.10
2023-04-05T20:06:10.472Z,12.03
2023-04-05T20:08:43.415Z,13.17
2023-04-05T20:11:15.605Z,10.13
2023-04-05T20:13:51.175Z,12.27
2023-04-05T20:16:29.309Z,10.87
2023-04-05T20:19:06.806Z,12.80
2023-04-05T20:21:39.847Z,10.30
2023-04-05T20:24:12.505Z,12.13
2023-04-05T20:26:43.701Z,14.10
2023-04-05T20:29:19.936Z,13.37
2023-04-05T20:31:53.669Z,10.87
2023-04-05T20:34:29.852Z,14.23
2023-04-05T20:37:02.151Z,14.00
2023-04-05T20:39:33.784Z,12.70
2023-04-05T20:42:05.072Z,12.03
2023-04-05T20:44:36.071Z,12.57
2023-04-05T20:47:09.612Z,14.60
2023-04-05T20:49:40.495Z,12.30
2023-04-05T20:52:11.500Z,14.43
2023-04-05T20:54:42.739Z,18.63
2023-04-05T20:57:13.789Z,15.30
2023-04-05T20:59:44.904Z,13.73
2023-04-05T21:02:18.768Z,14.77
2023-04-05T21:04:50.687Z,14.13
2023-04-05T21:07:21.964Z,22.47
2023-04-05T21:09:53.023Z,17.60
2023-04-05T21:12:24.132Z,16.97
2023-04-05T21:14:55.992Z,16.93
2023-04-05T21:17:29.913Z,17.17
2023-04-05T21:20:00.777Z,20.40
2023-04-05T21:22:32.261Z,17.90
2023-04-05T21:25:05.809Z,18.17
2023-04-05T21:27:37.346Z,18.07
2023-04-05T21:30:10.044Z,18.53
2023-04-05T21:32:44.160Z,20.47
2023-04-05T21:35:18.306Z,22.27
2023-04-05T21:37:49.499Z,20.20
2023-04-05T21:40:21.267Z,21.87
2023-04-05T21:42:52.546Z,22.70
2023-04-05T21:45:23.540Z,23.40
2023-04-05T21:47:57.400Z,25.93
2023-04-05T21:50:28.306Z,25.23
2023-04-05T21:52:59.257Z,27.73
2023-04-05T21:55:32.262Z,28.37
2023-04-05T21:58:03.624Z,27.00
2023-04-05T22:00:34.788Z,31.70
2023-04-05T22:03:08.701Z,23.13
2023-04-05T22:05:39.726Z,22.03
2023-04-05T22:08:11.483Z,19.97
2023-04-05T22:10:43.985Z,22.80
2023-04-05T22:13:18.170Z,19.77
2023-04-05T22:15:49.446Z,23.60
2023-04-05T22:18:25.656Z,18.80
2023-04-05T22:20:57.475Z,18.27
2023-04-05T22:23:28.409Z,20.95
2023-04-05T22:25:59.465Z,15.73
2023-04-05T22:28:30.572Z,17.63
2023-04-05T22:31:01.657Z,18.83
2023-04-05T22:33:35.522Z,17.73
2023-04-05T22:36:06.963Z,17.40
2023-04-05T22:38:37.953Z,20.53
2023-04-05T22:41:08.777Z,14.83
2023-04-05T22:43:42.588Z,15.57
2023-04-05T22:46:21.222Z,17.30
2023-04-05T22:48:55.416Z,14.23
2023-04-05T22:52:06.326Z,15.93
2023-04-05T22:54:38.296Z,16.30
2023-04-05T22:57:11.177Z,15.00
2023-04-05T22:59:43.080Z,12.70
2023-04-05T23:02:14.175Z,14.02
2023-04-05T23:04:47.836Z,15.80
2023-04-05T23:07:18.813Z,15.73
2023-04-05T23:09:49.872Z,14.43
2023-04-05T23:12:22.596Z,13.55
2023-04-05T23:14:53.666Z,14.32
2023-04-05T23:17:25.452Z,13.00
2023-04-05T23:19:59.196Z,14.25
2023-04-05T23:22:30.234Z,14.00
2023-04-05T23:25:02.614Z,12.35
2023-04-05T23:27:33.984Z,13.77
2023-04-05T23:30:04.952Z,10.77
2023-04-05T23:32:35.891Z,12.07
2023-04-05T23:35:12.466Z,10.73
2023-04-05T23:37:43.498Z,12.98
2023-04-05T23:40:15.034Z,13.95
2023-04-05T23:42:46.093Z,16.60
2023-04-05T23:45:17.281Z,12.13
2023-04-05T23:47:48.388Z,12.70
2023-04-05T23:50:22.429Z,12.35
2023-04-05T23:52:53.481Z,11.77
2023-04-05T23:55:24.453Z,11.63
2023-04-05T23:57:57.919Z,12.85
